CYVR

Vancouver International Airport

Vancouver, , Canada
METAR CYVR 161200Z 08012KT 15SM -RA BKN036 BKN057 OVC072 08/05 A2968 RMK SC5SC2NS1 SLP053
Observed Flight Rules
Dec-16 @ 12:00 UTC (46 minutes ago) Visual Flight Rules
Wind Visibility Clouds Conditions
80° at 12 knots 15 miles
  • Broken at 3,600' AGL
  • Broken at 5,700' AGL
  • Overcast at 7,200' AGL
  • Light Rain
Temperatures Readings
Current 8°C / 46°F
Dewpoint 5°C / 41°F
Humidity 82%
Altimeter 29.68" Hg
Pressure 1005.3 hPa
Elevation 2
METAR CYVR 161200Z 08012KT 15SM -RA BKN036 BKN057 OVC072 08/05 A2968 RMK SC5SC2NS1 SLP053
Observed Flight Rules
Dec-16 @ 12:00 UTC
(46 minutes ago)
VFR
Wind Visibility
80° at 12 knots 15 miles
Clouds
  • Broken at 3,600' AGL
  • Broken at 5,700' AGL
  • Overcast at 7,200' AGL
Conditions
  • Light Rain
Temperature Dewpoint
8°C / 46°F 5°C / 41°F
Humidity Altimeter Pressure
82% 29.68" Hg 1005.3 hPa